Terminal Aerodrome Forecast
Issued by NWS Charleston, WV

Home | Current Version | Previous Version | Text Only | Print | Product List | Glossary On
Versions: 1 2 3 4 5 6 7 8 9 10 11 12 13 14 15 16 17
846
FTUS41 KRLX 231533 AAA
TAFEKN
TAF AMD
KEKN 231533Z 2316/2412 16010G21KT P6SM OVC250
     FM240000 14012G24KT P6SM -SHRA OVC070
     FM240100 14009G19KT P6SM OVC070=

USA.gov is the U.S. government's official web portal to all federal, state and local government web resources and services.